KMSS/MSS METAR and TAF weather

Enter ICAO airport designator
Station Type Date Time Source
KMSS METAR 2021/05/12 05:17 UTC NOAA

KMSS 120517Z AUTO 25007KT 10SM -RA BKN011 BKN055 OVC075 07/04 A3003 RMK AO2 RAB09 P0000 T00670039


Station Type Date Time Source
KMSS Decoded METAR 2021/05/12 05:17 UTC NOAA

MASSENA INTERNATIONAL -RICHARDS FLD, NY, United States (KMSS) 44-56N 074-51W 66M
May 12, 2021 - 01:17 AM EDT / 2021.05.12 0517 UTC
Wind: from the WSW (250 degrees) at 8 MPH (7 KT):0
Visibility: 10 mile(s):0
Sky conditions: overcast
Weather: light rain
Precipitation last hour: A trace
Temperature: 44.1 F (6.7 C)
Dew Point: 39.0 F (3.9 C)
Relative Humidity: 82%
Pressure (altimeter): 30.03 in. Hg (1016 hPa)
ob: KMSS 120517Z AUTO 25007KT 10SM -RA BKN011 BKN055 OVC075 07/04 A3003 RMK AO2 RAB09 P0000 T00670039
cycle: 5

Station Type Date Time Source
KMSS TAF 2021/05/12 02:54 UTC NOAA

TAF
AMD KMSS 120153Z 1202/1224 25008KT P6SM VCSH OVC014
FM120600 27007KT P6SM OVC025
FM121400 29007KT P6SM BKN035
FM121800 31008G18KT P6SM SCT035

Example: see airport list